• Join FlightAware (Why Join?)
  • Login
  • US Flag 
11:21AM EDT


 

Airport Tracker/Info


-or-


 

Live Flight TrackerFlight Track Log ✈ JBU391 ✈ 22-Apr-2013 ✈ KLGA - KMCO

Flight Track Log - Related Links

Times and Time Zones

All times are in EDT time to prevent confusion due to time zone crossing. See the JBU391 flight status page for this flight to view local times or setup timezone preferences in your user account.

Time Position Orientation Groundspeed Altitude Reporting Facility
EDT Latitude Longitude Course Direction KTS MPH feet Rate Location/Type
07:39PM 40.7500 -73.8167 180° South 154 177 2,200  Level New York TRACON
07:40PM 40.7833 -73.7833 37° Northeast 236 272 4,700 3,300 Climbing New York TRACON
07:41PM 40.4702 -74.0066 201° Southwest  Level FlightAware Approximate
07:41PM 40.8000 -73.8500 288° West 227 261 8,800  Level New York TRACON
07:42PM 40.3704 -74.0565 201° Southwest  Level FlightAware Approximate
07:42PM 40.7667 -73.9167 237° Southwest 226 260 11,600  Level New York TRACON
07:43PM 40.2706 -74.1064 201° Southwest  Level FlightAware Approximate
07:43PM 40.7333 -74.0000 242° Southwest 279 321 12,100  Level New York TRACON
07:44PM 40.1718 -74.1500 180° South  Level FlightAware Approximate
07:44PM 40.6833 -74.0833 232° Southwest 285 328 12,000  Level New York TRACON
07:45PM 40.6000 -74.1000 189° South 300 345 13,400 1,800 Climbing New York TRACON
07:46PM 40.5167 -74.1167 189° South 343 395 15,700 1,440 Climbing New York TRACON
07:47PM 40.3633 -74.1514 190° South 363 418 17,100 480 Climbing New York Center
07:48PM 40.2689 -74.1739 190° South 363 418 17,000 -120 Descending New York Center
07:49PM 40.1783 -74.1994 192° South 363 418 16,900 720 Descending New York Center
07:50PM 40.0600 -74.2361 193° South 365 420 18,500 1,920 Climbing Washington Center
07:51PM 39.9628 -74.2950 205° Southwest 370 426 20,900 2,280 Climbing Washington Center
07:52PM 39.8781 -74.3722 215° Southwest 370 426 23,100 2,640 Climbing Washington Center
07:53PM 39.7978 -74.4572 219° Southwest 376 433 26,200 2,460 Climbing Washington Center
07:54PM 39.7278 -74.5500 226° Southwest 376 433 28,100 1,740 Climbing Washington Center
07:55PM 39.6658 -74.6292 225° Southwest 365 420 29,700 1,680 Climbing Washington Center
07:56PM 39.5978 -74.7189 225° Southwest 355 409 31,500 1,680 Climbing Washington Center
07:57PM 39.5317 -74.8058 225° Southwest 349 402 33,100 1,800 Climbing Washington Center
07:58PM 39.4678 -74.8953 227° Southwest 349 402 35,200 1,440 Climbing Washington Center
07:59PM 39.4056 -74.9739 224° Southwest 338 389 36,000 360 Climbing Washington Center
08:00PM 39.3414 -75.0550 224° Southwest 327 376 36,000  Level Washington Center
08:01PM 39.2644 -75.1225 214° Southwest 332 382 36,000  Level Washington Center
08:02PM 39.1731 -75.1633 199° South 337 388 36,000  Level Washington Center
08:03PM 39.0836 -75.2039 199° South 342 394 36,000  Level Washington Center
08:04PM 38.9919 -75.2392 197° South 342 394 36,000 -60 Level Washington Center
08:05PM 38.8983 -75.2794 199° South 348 400 35,900  Descending Washington Center
08:06PM 38.8025 -75.3225 199° South 353 406 36,000  Climbing Washington Center
08:07PM 38.7089 -75.3656 200° South 358 412 36,000  Level Washington Center
08:08PM 38.6131 -75.4056 198° South 364 419 36,000  Level Washington Center
08:09PM 38.5192 -75.4406 196° South 364 419 36,000  Level Washington Center
08:10PM 38.4233 -75.4778 197° South 364 419 36,000  Level Washington Center
08:11PM 38.3317 -75.5256 202° Southwest 364 419 36,000  Level Washington Center
08:12PM 38.2481 -75.5944 213° Southwest 359 413 36,000  Level Washington Center
08:13PM 38.1628 -75.6550 209° Southwest 359 413 36,000  Level Washington Center
08:14PM 38.0750 -75.7183 210° Southwest 359 413 36,000  Level Washington Center
08:15PM 37.9894 -75.7842 211° Southwest 359 413 36,000  Level Washington Center
08:16PM 37.8997 -75.8417 207° Southwest 359 413 36,000  Level Washington Center
08:17PM 37.8100 -75.9044 209° Southwest 364 419 36,000  Level Washington Center
08:18PM 37.7178 -75.9750 211° Southwest 359 413 36,000  Level Washington Center
08:19PM 37.6322 -76.0350 209° Southwest 359 413 36,000  Level Washington Center
08:20PM 37.5464 -76.0972 210° Southwest 359 413 36,000  Level Washington Center
08:21PM 37.4753 -76.1439 208° Southwest 359 413 36,000  Level Washington Center
08:22PM 37.3769 -76.2061 207° Southwest 359 413 36,000  Level Washington Center
08:23PM 37.2911 -76.2681 210° Southwest 359 413 36,000  Level Washington Center
08:24PM 37.2011 -76.3272 208° Southwest 359 413 36,000  Level Washington Center
08:25PM 37.1131 -76.3889 209° Southwest 359 413 36,000  Level Washington Center
08:26PM 37.0250 -76.4478 208° Southwest 359 413 36,000  Level Washington Center
08:27PM 36.9369 -76.5092 209° Southwest 359 413 36,000  Level Washington Center
08:28PM 36.8489 -76.5703 209° Southwest 359 413 36,000  Level Washington Center
08:29PM 36.7608 -76.6289 208° Southwest 359 413 36,000  Level Washington Center
08:30PM 36.6642 -76.7003 211° Southwest 359 413 36,000  Level Washington Center
08:31PM 36.5739 -76.7608 208° Southwest 364 419 36,000  Level Washington Center
08:32PM 36.5025 -76.8089 208° Southwest 364 419 36,000 480 Level Washington Center
08:33PM 36.3953 -76.8794 208° Southwest 364 419 37,000 900 Climbing Washington Center
08:34PM 36.3069 -76.9375 208° Southwest 364 419 37,900 480 Climbing Washington Center
08:35PM 36.2186 -76.9978 209° Southwest 364 419 38,000  Climbing Washington Center
08:36PM 36.1325 -77.0553 208° Southwest 364 419 38,000 -60 Level Washington Center
08:37PM 36.0442 -77.1128 208° Southwest 359 413 37,900  Descending Washington Center
08:38PM 35.9706 -77.1653 210° Southwest 351 404 38,000  Climbing Washington Center
08:39PM 35.8800 -77.2225 207° Southwest 356 410 38,000  Level Washington Center
08:40PM 35.7936 -77.2794 208° Southwest 361 415 38,000  Level Washington Center
08:41PM 35.7072 -77.3392 209° Southwest 361 415 38,000  Level Washington Center
08:42PM 35.6167 -77.3958 207° Southwest 361 415 38,000  Level Washington Center
08:43PM 35.5303 -77.4528 208° Southwest 361 415 38,000  Level Washington Center
08:44PM 35.4397 -77.5092 207° Southwest 361 415 38,000  Level Washington Center
08:45PM 35.3531 -77.5758 212° Southwest 361 415 38,000  Level Washington Center
08:46PM 35.2767 -77.6556 220° Southwest 366 421 38,000  Level Washington Center
08:47PM 35.1981 -77.7372 220° Southwest 371 427 38,000  Level Washington Center
08:48PM 35.1236 -77.8114 219° Southwest 365 420 38,000  Level Washington Center
08:49PM 35.0469 -77.8906 220° Southwest 365 420 38,000  Level Washington Center
08:50PM 34.9725 -77.9669 220° Southwest 360 414 38,000  Level Washington Center
08:51PM 34.9000 -78.0433 221° Southwest 360 414 38,000  Level Washington Center
08:52PM 34.8253 -78.1169 219° Southwest 360 414 38,000  Level Washington Center
08:54PM 34.6800 -78.2725 221° Southwest 352 405 38,000  Level Jacksonville Center
08:55PM 34.6097 -78.3444 220° Southwest 362 417 38,000 -60 Level Jacksonville Center
08:56PM 34.5333 -78.4242 221° Southwest 370 426 37,900  Descending Jacksonville Center
08:57PM 34.4528 -78.5039 219° Southwest 370 426 38,000  Climbing Jacksonville Center
08:58PM 34.3742 -78.5833 220° Southwest 375 432 38,000  Level Jacksonville Center
08:59PM 34.2933 -78.6653 220° Southwest 380 437 38,000  Level Jacksonville Center
09:00PM 34.2125 -78.7444 219° Southwest 380 437 38,000  Level Jacksonville Center
09:01PM 34.1297 -78.8261 219° Southwest 380 437 38,000  Level Jacksonville Center
09:02PM 34.0450 -78.9128 220° Southwest 392 451 38,000  Level Jacksonville Center
09:03PM 33.9578 -78.9994 220° Southwest 398 458 38,000  Level Jacksonville Center
09:04PM 33.8686 -79.0858 219° Southwest 411 473 38,000  Level Jacksonville Center
09:05PM 33.7817 -79.1719 219° Southwest 416 479 38,000  Level Jacksonville Center
09:06PM 33.6881 -79.2608 218° Southwest 402 463 38,000 -60 Level Jacksonville Center
09:07PM 33.6031 -79.3492 221° Southwest 395 455 37,900 -60 Descending Jacksonville Center
09:08PM 33.5156 -79.4347 219° Southwest 401 461 37,900  Level Jacksonville Center
09:09PM 33.4281 -79.5178 218° Southwest 401 461 37,900  Level Jacksonville Center
09:10PM 33.3386 -79.6058 219° Southwest 414 476 37,900  Level Jacksonville Center
09:11PM 33.2492 -79.6936 219° Southwest 420 483 38,000  Climbing Jacksonville Center
09:12PM 33.1575 -79.7811 219° Southwest 420 483 38,000  Level Jacksonville Center
09:13PM 33.0678 -79.8686 219° Southwest 420 483 38,000  Level Jacksonville Center
09:14PM 32.9922 -79.9381 218° Southwest 420 483 38,000  Level Jacksonville Center
09:15PM 32.8919 -80.0353 219° Southwest 420 483 38,000  Level Jacksonville Center
09:16PM 32.7914 -80.1125 213° Southwest 432 497 38,000  Level Jacksonville Center
09:17PM 32.6889 -80.1872 212° Southwest 437 503 38,000  Level Jacksonville Center
09:18PM 32.5861 -80.2644 212° Southwest 437 503 38,000  Level Jacksonville Center
09:19PM 32.4833 -80.3411 212° Southwest 437 503 38,000  Level Jacksonville Center
09:20PM 32.3803 -80.4156 211° Southwest 442 509 38,000  Level Jacksonville Center
09:21PM 32.2775 -80.4919 212° Southwest 448 516 38,000  Level Jacksonville Center
09:22PM 32.1744 -80.5658 211° Southwest 448 516 38,000  Level Jacksonville Center
09:23PM 32.0736 -80.6419 213° Southwest 442 509 38,000  Level Jacksonville Center
09:24PM 31.9622 -80.7206 211° Southwest 436 502 38,000  Level Jacksonville Center
09:25PM 31.8650 -80.7889 211° Southwest 424 488 38,000  Level Jacksonville Center
09:26PM 31.7764 -80.8544 212° Southwest 424 488 38,000  Level Jacksonville Center
09:27PM 31.6711 -80.9300 211° Southwest 418 481 38,000  Level Jacksonville Center
09:28PM 31.5822 -80.9953 212° Southwest 423 487 38,000  Level Jacksonville Center
09:29PM 31.4664 -81.0561 204° Southwest 415 478 38,000  Level Jacksonville Center
09:30PM 31.3350 -81.0636 183° South 436 502 38,000 -60 Level Jacksonville Center
09:31PM 31.2117 -81.0658 181° South 460 529 37,900  Descending Jacksonville Center
09:32PM 31.0886 -81.0658 180° South 452 520 38,000  Climbing Jacksonville Center
09:33PM 30.9592 -81.0708 182° South 452 520 38,000 -480 Level Jacksonville Center
09:34PM 30.8361 -81.0756 182° South 457 526 37,100 -1,320 Descending Jacksonville Center
09:35PM 30.7128 -81.0756 180° South 452 520 35,400 -1,620 Descending Jacksonville Center
09:36PM 30.5919 -81.0803 182° South 446 513 33,900 -720 Descending Jacksonville Center
09:37PM 30.4708 -81.0825 181° South 439 505 34,000  Climbing Jacksonville Center
09:38PM 30.3497 -81.0847 181° South 439 505 34,000  Level Jacksonville Center
09:39PM 30.2286 -81.0869 181° South 439 505 34,000  Level Jacksonville Center
09:40PM 30.1056 -81.0919 182° South 439 505 34,000 -1,080 Level Jacksonville Center
09:41PM 29.9825 -81.0964 182° South 439 505 31,900 -2,400 Descending Jacksonville Center
09:42PM 29.8553 -81.0989 181° South 444 511 29,200 -2,580 Descending Jacksonville Center
09:43PM 29.7258 -81.1036 182° South 454 522 26,800 -2,460 Descending Jacksonville Center
09:44PM 29.6028 -81.1083 182° South 454 522 24,300 -2,700 Descending Jacksonville Center
09:45PM 29.4836 -81.1106 181° South 449 517 21,500 -2,460 Descending Jacksonville Center
09:46PM 29.3689 -81.1100 180° South 435 501 19,400 -2,100 Descending Jacksonville Center
09:47PM 29.2561 -81.1097 180° South 417 480 17,300 -2,280 Descending Jacksonville Center
09:48PM 29.1475 -81.1000 176° South 410 472 14,900 -2,280 Descending Jacksonville Center
09:49PM 29.0408 -81.0922 176° South 394 453 12,800 -1,560 Descending Jacksonville Center
09:50PM 28.9386 -81.0775 173° South 383 441 11,800 -1,200 Descending Jacksonville Center
09:51PM 28.8667 -81.0833 184° South 327 376 10,700 -1,140 Descending Orlando TRACON
09:52PM 28.7833 -81.1167 199° South 298 343 9,800 -900 Descending Orlando TRACON
09:53PM 28.7000 -81.1333 190° South 300 345 9,000 -600 Descending Orlando TRACON
09:54PM 28.6167 -81.1333 180° South 296 341 8,600 -1,080 Descending Orlando TRACON
09:55PM 28.5333 -81.1500 190° South 286 329 6,900 -1,260 Descending Orlando TRACON
09:56PM 28.4667 -81.1667 192° South 259 298 6,100 -1,020 Descending Orlando TRACON
09:57PM 28.4000 -81.1833 192° South 242 278 4,900 -1,320 Descending Orlando TRACON
09:58PM 28.3333 -81.1833 180° South 236 272 3,500 -1,500 Descending Orlando TRACON
09:59PM 28.2667 -81.2000 192° South 240 276 1,900 -480 Descending Orlando TRACON
10:01PM 28.1785 -81.1928 344° North  Level FlightAware Approximate
10:02PM 28.3500 -81.2833 336° Northwest 166 191 1,700  Level Orlando TRACON
10:03PM 28.3833 -81.2833 360° North 119 137 1,000 -660 Descending Orlando TRACON
10:04PM 28.4167 -81.2833 360° North 125 144 400 -600 Descending Orlando TRACON
10:06PM 28.4167 -81.3000 336° Northwest  Level FlightAware Approximate
10:08PM 28.4167 -81.3000 336° Northwest  Level FlightAware Approximate
10:13PM 28.4294 -81.3090 336° Northwest  Level Estimated
10:14PM 28.4294 -81.3090 336° Northwest  Level Estimated
10:15PM 28.4294 -81.3090 336° Northwest  Level Estimated